Time;durP1;ratioP1;P1;durP2;ratioP2;P2;SDS_P1;SDS_P2;PMS_P1;PMS_P2;Temp;Humidity;BMP_temperature;BMP_pressure;BME280_temperature;BME280_humidity;BME280_pressure;Samples;Min_cycle;Max_cycle;Signal;HPM_P1;HPM_P2
2022/04/26 03:37:45;;;;;;;6.63;2.83;;;7.60;99.90;;;;;;5084927;28;20546;-74
2022/04/26 03:40:10;;;;;;;9.30;3.40;;;7.60;99.90;;;;;;5091891;28;20032;-75
2022/04/26 03:42:36;;;;;;;7.85;3.50;;;7.60;99.90;;;;;;5084208;28;20021;-74
2022/04/26 03:45:02;;;;;;;5.43;2.92;;;7.60;99.90;;;;;;5066616;28;20541;-76
2022/04/26 03:47:28;;;;;;;7.22;3.63;;;7.60;99.90;;;;;;5066321;28;20028;-75
2022/04/26 03:49:53;;;;;;;4.57;3.30;;;7.60;99.90;;;;;;5067013;28;20096;-73
2022/04/26 03:52:20;;;;;;;8.35;3.22;;;7.60;99.90;;;;;;5089217;28;20028;-76
2022/04/26 03:54:46;;;;;;;6.00;3.00;;;7.60;99.90;;;;;;5084783;28;20453;-75
2022/04/26 03:57:11;;;;;;;10.27;3.28;;;7.50;99.90;;;;;;5066310;28;20112;-75
2022/04/26 03:59:37;;;;;;;8.73;3.70;;;7.50;99.90;;;;;;5091587;28;20059;-73
2022/04/26 04:02:02;;;;;;;8.45;3.17;;;7.50;99.90;;;;;;5081341;28;20029;-72
2022/04/26 04:04:28;;;;;;;7.85;3.38;;;7.40;99.90;;;;;;5086741;28;20038;-73
2022/04/26 04:06:54;;;;;;;4.63;3.05;;;7.40;99.90;;;;;;5104578;28;20028;-72
2022/04/26 04:09:19;;;;;;;7.75;3.53;;;7.40;99.90;;;;;;5086191;28;20020;-72
2022/04/26 04:11:45;;;;;;;8.40;3.65;;;7.30;99.90;;;;;;5107390;28;20028;-74
2022/04/26 04:14:10;;;;;;;6.60;3.33;;;7.30;99.90;;;;;;5089778;28;20035;-75
2022/04/26 04:16:36;;;;;;;6.95;3.55;;;7.30;99.90;;;;;;5108384;28;20529;-72
2022/04/26 04:19:21;;;;;;;7.57;3.75;;;7.30;99.90;;;;;;5108765;28;20027;-74
2022/04/26 04:21:47;;;;;;;11.57;3.45;;;7.30;99.90;;;;;;5108047;28;20022;-73
2022/04/26 04:24:14;;;;;;;12.30;4.10;;;7.30;99.90;;;;;;5090183;28;20024;-73
2022/04/26 04:26:40;;;;;;;8.52;3.15;;;7.30;99.90;;;;;;5108147;28;20031;-73
2022/04/26 04:29:06;;;;;;;6.75;2.88;;;7.30;99.90;;;;;;5084636;28;20123;-73
2022/04/26 04:31:33;;;;;;;7.25;2.90;;;7.30;99.90;;;;;;5093791;28;20031;-73
2022/04/26 04:34:01;;;;;;;11.43;4.18;;;7.20;99.90;;;;;;5107563;28;20471;-73
2022/04/26 04:36:27;;;;;;;5.18;2.95;;;7.20;99.90;;;;;;5107930;28;20043;-75
2022/04/26 04:38:53;;;;;;;6.07;3.22;;;7.20;99.90;;;;;;5090082;28;20034;-71
2022/04/26 04:41:18;;;;;;;6.55;2.83;;;7.20;99.90;;;;;;5107881;28;20449;-71
2022/04/26 04:43:44;;;;;;;8.85;3.08;;;7.20;99.90;;;;;;5107492;28;20054;-73
2022/04/26 04:46:10;;;;;;;4.72;3.28;;;7.20;99.90;;;;;;5088978;28;20024;-73
2022/04/26 04:48:36;;;;;;;7.55;4.22;;;7.20;99.90;;;;;;5086089;28;20028;-72
2022/04/26 04:51:02;;;;;;;5.82;2.75;;;7.20;99.90;;;;;;5103316;28;20456;-74
2022/04/26 04:53:28;;;;;;;5.63;3.15;;;7.20;99.90;;;;;;5106439;28;20028;-73
2022/04/26 04:55:53;;;;;;;6.70;3.13;;;7.30;99.90;;;;;;5102070;28;20039;-73
2022/04/26 04:58:19;;;;;;;12.48;3.15;;;7.20;99.90;;;;;;5102126;28;20072;-72
2022/04/26 05:00:44;;;;;;;11.23;3.33;;;7.30;99.90;;;;;;5087586;28;20016;-72
2022/04/26 05:03:10;;;;;;;6.50;3.60;;;7.30;99.90;;;;;;5104545;28;20020;-73
2022/04/26 05:05:36;;;;;;;5.22;3.17;;;7.30;99.90;;;;;;5086836;28;20039;-73
2022/04/26 05:08:02;;;;;;;6.20;3.17;;;7.40;99.90;;;;;;5087971;28;20089;-73
2022/04/26 05:10:32;;;;;;;4.93;3.22;;;7.50;99.90;;;;;;5077993;28;20038;-72
2022/04/26 05:12:58;;;;;;;6.53;3.25;;;7.50;99.90;;;;;;5099838;28;20032;-72
2022/04/26 05:15:25;;;;;;;6.18;3.40;;;7.60;99.90;;;;;;5085827;28;20043;-72
2022/04/26 05:17:52;;;;;;;8.77;3.63;;;7.70;99.90;;;;;;5109557;28;20483;-74
2022/04/26 05:20:17;;;;;;;6.35;3.05;;;7.70;99.90;;;;;;5126597;28;20030;-71
2022/04/26 05:25:28;;;;;;;7.45;3.13;;;7.90;99.90;;;;;;5127553;28;20547;-73
2022/04/26 05:27:54;;;;;;;6.20;2.97;;;8.00;99.90;;;;;;5127606;28;20148;-72
2022/04/26 05:30:19;;;;;;;7.20;3.38;;;8.10;99.90;;;;;;5127229;28;20035;-73
2022/04/26 05:32:45;;;;;;;6.93;3.40;;;8.10;99.90;;;;;;5110236;28;20024;-73
2022/04/26 05:35:13;;;;;;;5.57;2.88;;;8.10;99.90;;;;;;5104003;28;20090;-73
2022/04/26 05:37:39;;;;;;;6.50;4.00;;;8.20;99.90;;;;;;5104903;28;20032;-74
2022/04/26 05:40:05;;;;;;;4.65;3.13;;;8.30;99.90;;;;;;5106594;28;20028;-74
2022/04/26 05:42:35;;;;;;;7.15;3.28;;;8.30;99.90;;;;;;5089468;28;20051;-72
2022/04/26 05:45:01;;;;;;;5.63;2.90;;;8.40;99.90;;;;;;5080272;28;20048;-73
2022/04/26 05:47:27;;;;;;;8.30;3.60;;;8.40;99.90;;;;;;5105599;28;20158;-72
2022/04/26 05:49:55;;;;;;;17.00;4.07;;;8.40;99.90;;;;;;5088478;28;20148;-75
2022/04/26 05:52:21;;;;;;;6.45;3.28;;;8.50;99.90;;;;;;5107869;28;20099;-72
2022/04/26 05:54:46;;;;;;;7.15;2.75;;;8.50;99.90;;;;;;5105933;28;20376;-72
2022/04/26 05:57:18;;;;;;;5.07;3.17;;;8.50;99.90;;;;;;5110453;28;20491;-71
2022/04/26 05:59:43;;;;;;;5.75;3.15;;;8.50;99.90;;;;;;5126475;28;20032;-73
2022/04/26 06:02:09;;;;;;;11.80;3.92;;;8.50;99.90;;;;;;5126873;28;20128;-72
2022/04/26 06:04:37;;;;;;;10.68;3.78;;;8.60;99.90;;;;;;5126925;28;20031;-72
2022/04/26 06:07:03;;;;;;;6.95;3.00;;;8.60;99.90;;;;;;5126742;28;20015;-72
2022/04/26 06:09:29;;;;;;;6.15;3.47;;;8.70;99.90;;;;;;5099600;28;20058;-73
2022/04/26 06:11:55;;;;;;;7.43;3.78;;;8.80;99.90;;;;;;5084740;28;20091;-73
2022/04/26 06:14:21;;;;;;;4.50;3.28;;;8.80;99.90;;;;;;5085607;28;20031;-73
2022/04/26 06:16:47;;;;;;;6.43;3.35;;;8.90;99.90;;;;;;5084268;28;20042;-73
2022/04/26 06:19:12;;;;;;;5.40;3.55;;;9.00;99.90;;;;;;5084333;28;20103;-73
2022/04/26 06:21:38;;;;;;;5.63;2.78;;;9.10;99.90;;;;;;5086752;28;20031;-74
2022/04/26 06:24:03;;;;;;;5.55;3.03;;;9.20;99.90;;;;;;5084262;28;20029;-73
2022/04/26 06:26:29;;;;;;;3.47;2.47;;;9.30;99.90;;;;;;5085594;28;20487;-73
2022/04/26 06:28:57;;;;;;;5.90;2.72;;;9.40;99.90;;;;;;5095846;28;20032;-74
2022/04/26 06:31:22;;;;;;;5.40;2.70;;;9.50;99.90;;;;;;5125143;28;20031;-74
2022/04/26 06:33:53;;;;;;;6.70;3.03;;;9.70;99.90;;;;;;5113210;28;20038;-73
2022/04/26 06:36:18;;;;;;;5.15;2.42;;;9.80;99.90;;;;;;5106036;28;20032;-72
2022/04/26 06:38:44;;;;;;;7.95;3.20;;;9.90;99.90;;;;;;5105075;28;20051;-70
2022/04/26 06:41:09;;;;;;;8.43;3.47;;;9.90;99.90;;;;;;5091605;28;20032;-71
2022/04/26 06:43:36;;;;;;;6.35;2.67;;;10.00;99.90;;;;;;5103151;28;20105;-73
2022/04/26 06:46:03;;;;;;;6.13;3.10;;;10.00;99.90;;;;;;5102671;28;20031;-72
2022/04/26 06:48:33;;;;;;;8.18;3.38;;;10.10;99.90;;;;;;5084337;28;20159;-72
2022/04/26 06:50:58;;;;;;;6.30;3.08;;;10.10;99.90;;;;;;5103450;28;20079;-71
2022/04/26 06:53:24;;;;;;;7.28;3.15;;;10.20;99.90;;;;;;5119615;28;20030;-73
2022/04/26 06:55:49;;;;;;;5.03;2.58;;;10.20;99.90;;;;;;5115543;28;20066;-72
2022/04/26 06:58:15;;;;;;;6.63;3.05;;;10.20;99.90;;;;;;5121299;28;20059;-72
2022/04/26 07:00:41;;;;;;;4.43;2.15;;;10.20;99.90;;;;;;5110102;28;20106;-72
2022/04/26 07:03:07;;;;;;;9.20;3.17;;;10.20;99.90;;;;;;5104164;28;20027;-72
2022/04/26 07:05:36;;;;;;;5.28;3.20;;;10.20;99.90;;;;;;5104806;28;20020;-73
2022/04/26 07:08:02;;;;;;;6.88;3.47;;;10.20;99.90;;;;;;5105511;28;20395;-72
2022/04/26 07:10:29;;;;;;;5.85;3.08;;;10.30;99.90;;;;;;5105260;28;20380;-72
2022/04/26 07:12:55;;;;;;;8.75;3.80;;;10.40;99.90;;;;;;5104401;28;20430;-73
2022/04/26 07:15:22;;;;;;;8.63;3.42;;;10.50;99.90;;;;;;5108926;28;20101;-72
2022/04/26 07:17:47;;;;;;;5.20;3.28;;;10.70;99.90;;;;;;5121931;28;20039;-72
2022/04/26 07:20:13;;;;;;;6.30;3.47;;;10.80;99.90;;;;;;5097219;28;20036;-74
2022/04/26 07:22:39;;;;;;;10.77;3.40;;;11.00;99.90;;;;;;5091536;28;20037;-72
2022/04/26 07:25:09;;;;;;;6.57;2.95;;;11.10;99.90;;;;;;5098315;28;20025;-73
2022/04/26 07:27:49;;;;;;;6.40;3.25;;;11.10;99.90;;;;;;5095800;28;20061;-73
2022/04/26 07:30:14;;;;;;;5.90;3.45;;;11.00;99.90;;;;;;5081960;28;20033;-72
2022/04/26 07:35:24;;;;;;;8.45;3.30;;;10.90;99.90;;;;;;5083647;28;20044;-71
2022/04/26 07:37:52;;;;;;;9.32;3.47;;;10.90;99.90;;;;;;5066344;28;20041;-72
2022/04/26 07:40:19;;;;;;;7.97;3.40;;;10.90;99.90;;;;;;5083267;28;20056;-71
2022/04/26 07:42:44;;;;;;;6.82;2.75;;;10.80;99.90;;;;;;5103288;28;20024;-72
2022/04/26 07:45:12;;;;;;;5.22;2.80;;;10.80;99.90;;;;;;5104438;28;20464;-72
2022/04/26 07:47:38;;;;;;;5.55;3.08;;;10.80;99.90;;;;;;5113719;28;20019;-73
2022/04/26 07:50:04;;;;;;;6.13;3.20;;;10.80;99.90;;;;;;5129307;28;20034;-74
2022/04/26 07:52:31;;;;;;;5.88;2.60;;;10.80;99.90;;;;;;5129074;28;20019;-72
2022/04/26 07:54:57;;;;;;;7.18;3.33;;;10.80;99.90;;;;;;5111236;28;20495;-72
2022/04/26 07:57:23;;;;;;;9.80;3.13;;;10.80;99.90;;;;;;5087404;28;20067;-73
2022/04/26 07:59:49;;;;;;;7.20;3.65;;;10.90;99.90;;;;;;5087077;28;20028;-72
2022/04/26 08:02:15;;;;;;;5.90;2.72;;;11.20;99.90;;;;;;5090049;28;20039;-72
2022/04/26 08:04:41;;;;;;;6.05;2.65;;;11.40;99.90;;;;;;5090997;28;20031;-73
2022/04/26 08:09:53;;;;;;;8.77;3.25;;;11.90;99.90;;;;;;4538025;22;20083;-71
2022/04/26 08:12:23;;;;;;;5.15;2.58;;;12.20;99.90;;;;;;5078862;28;20096;-72
2022/04/26 08:14:48;;;;;;;5.38;2.85;;;12.40;99.90;;;;;;5063574;28;20029;-71
2022/04/26 08:17:15;;;;;;;7.10;3.03;;;12.70;99.90;;;;;;5081845;28;20094;-72
2022/04/26 08:19:41;;;;;;;5.93;2.85;;;12.90;99.90;;;;;;5082684;28;20034;-72
2022/04/26 08:22:16;;;;;;;5.30;3.15;;;13.10;99.90;;;;;;5062220;28;20091;-74
2022/04/26 08:27:25;;;;;;;4.47;1.98;;;13.10;99.90;;;;;;5070048;28;19920;-74
2022/04/26 08:29:55;;;;;;;7.38;2.75;;;13.20;99.90;;;;;;5067166;28;20435;-73
2022/04/26 08:32:23;;;;;;;5.22;2.90;;;13.30;99.90;;;;;;5064700;28;20029;-72
2022/04/26 08:34:49;;;;;;;3.35;2.03;;;13.40;99.90;;;;;;5061906;28;20025;-73
2022/04/26 08:37:15;;;;;;;3.67;1.95;;;13.80;99.90;;;;;;5065938;28;20044;-73
2022/04/26 08:39:41;;;;;;;3.67;2.08;;;14.00;99.90;;;;;;5064357;28;20041;-74
2022/04/26 08:42:06;;;;;;;4.03;2.00;;;14.10;99.90;;;;;;5066429;28;20029;-73
2022/04/26 08:44:34;;;;;;;3.95;2.42;;;14.30;99.90;;;;;;5082323;28;20025;-72
2022/04/26 08:52:51;;;;;;;6.57;2.28;;;14.90;99.90;;;;;;5067075;28;20551;-74
2022/04/26 08:55:19;;;;;;;3.13;1.80;;;15.00;99.90;;;;;;5066383;28;20043;-74
2022/04/26 08:57:45;;;;;;;4.85;2.08;;;15.20;99.90;;;;;;5065612;28;20041;-73
2022/04/26 09:00:11;;;;;;;3.95;2.22;;;15.30;99.90;;;;;;5066912;28;20035;-74
2022/04/26 09:02:38;;;;;;;5.65;2.25;;;15.30;99.90;;;;;;5064658;28;20055;-73
2022/04/26 09:05:16;;;;;;;5.28;2.08;;;15.30;99.90;;;;;;5047277;28;20022;-75
2022/04/26 09:07:47;;;;;;;4.40;2.08;;;15.40;99.90;;;;;;5039622;28;20112;-73
2022/04/26 09:10:16;;;;;;;4.55;2.20;;;15.60;99.90;;;;;;5046800;28;20045;-74
2022/04/26 09:13:06;;;;;;;6.82;2.47;;;15.80;99.90;;;;;;5037088;28;20033;-73
2022/04/26 09:15:39;;;;;;;2.97;1.42;;;15.80;99.90;;;;;;5035229;28;20029;-74
2022/04/26 09:18:15;;;;;;;5.65;2.33;;;15.70;99.90;;;;;;5033894;28;20572;-73
2022/04/26 09:20:41;;;;;;;3.75;1.92;;;15.60;99.90;;;;;;5035646;28;20037;-73
2022/04/26 09:23:17;;;;;;;3.85;1.85;;;15.70;99.90;;;;;;5047898;28;20089;-74
2022/04/26 09:25:44;;;;;;;5.68;1.45;;;16.20;99.90;;;;;;5050373;28;20498;-73
2022/04/26 09:28:20;;;;;;;2.88;1.70;;;16.30;99.90;;;;;;5057980;28;20036;-72
2022/04/26 09:30:47;;;;;;;2.58;1.60;;;16.20;99.90;;;;;;5037346;28;20029;-74
2022/04/26 09:33:30;;;;;;;2.38;1.55;;;16.00;99.90;;;;;;5032648;28;20569;-74
2022/04/26 09:36:11;;;;;;;2.72;2.00;;;15.90;99.90;;;;;;5034925;28;20381;-72
2022/04/26 09:38:38;;;;;;;3.03;1.83;;;16.10;99.90;;;;;;5046213;28;20038;-74
2022/04/26 09:41:09;;;;;;;5.38;1.98;;;16.00;99.90;;;;;;5049158;28;20033;-73
2022/04/26 09:43:38;;;;;;;3.55;1.63;;;16.10;99.90;;;;;;5056971;28;20030;-73
2022/04/26 09:46:04;;;;;;;2.40;1.40;;;16.20;99.90;;;;;;5045838;28;20030;-74
2022/04/26 09:48:39;;;;;;;3.53;1.80;;;16.50;99.90;;;;;;5045779;28;20037;-73
2022/04/26 09:51:07;;;;;;;3.63;1.77;;;16.70;99.90;;;;;;5036239;28;20040;-73
2022/04/26 09:53:33;;;;;;;5.80;1.63;;;16.90;99.90;;;;;;5055868;28;20045;-72
2022/04/26 09:56:01;;;;;;;1.40;0.85;;;16.80;99.90;;;;;;5040689;28;20033;-72
2022/04/26 09:58:28;;;;;;;2.63;1.50;;;17.10;99.90;;;;;;5032200;28;20044;-72
2022/04/26 10:00:56;;;;;;;2.88;1.42;;;17.00;99.90;;;;;;5046190;28;20030;-71
2022/04/26 10:03:35;;;;;;;1.42;1.25;;;17.00;99.90;;;;;;5047334;28;20022;-72
2022/04/26 10:06:06;;;;;;;1.42;1.13;;;17.10;99.90;;;;;;5060144;28;20029;-74
2022/04/26 10:08:38;;;;;;;3.50;1.70;;;17.20;99.90;;;;;;5038682;28;20034;-72
2022/04/26 10:11:04;;;;;;;3.80;1.63;;;17.50;99.90;;;;;;5042555;28;20383;-73
2022/04/26 10:13:36;;;;;;;3.20;1.98;;;17.50;99.90;;;;;;5046038;28;20025;-74
2022/04/26 10:16:03;;;;;;;4.55;2.35;;;17.70;99.90;;;;;;5045732;28;20029;-73
2022/04/26 10:18:31;;;;;;;3.75;1.90;;;17.90;99.90;;;;;;5041333;28;20041;-73
2022/04/26 10:20:57;;;;;;;2.85;1.60;;;18.00;99.90;;;;;;5029826;28;20037;-72
2022/04/26 10:23:23;;;;;;;3.17;1.60;;;18.20;99.90;;;;;;5029874;28;20017;-72
2022/04/26 10:26:21;;;;;;;3.22;1.73;;;18.40;99.90;;;;;;5046628;28;20113;-72
2022/04/26 10:29:00;;;;;;;4.28;1.20;;;18.60;99.90;;;;;;5036500;28;20153;-74
2022/04/26 10:31:35;;;;;;;4.68;2.45;;;18.70;99.90;;;;;;5038251;28;20021;-73
2022/04/26 10:34:26;;;;;;;3.75;1.98;;;18.50;99.90;;;;;;5059843;28;20037;-72
2022/04/26 10:36:56;;;;;;;3.40;1.63;;;18.50;99.90;;;;;;5058010;28;20049;-72
2022/04/26 10:39:32;;;;;;;1.73;1.42;;;18.70;99.90;;;;;;5041431;28;20532;-73
2022/04/26 10:42:01;;;;;;;3.38;1.80;;;19.00;99.90;;;;;;5031520;28;20078;-73
2022/04/26 10:44:31;;;;;;;3.83;2.00;;;19.30;99.90;;;;;;5028398;28;20565;-73
2022/04/26 10:47:03;;;;;;;3.95;1.67;;;19.50;99.90;;;;;;5029098;28;20172;-71
2022/04/26 10:49:40;;;;;;;3.25;1.35;;;19.80;99.90;;;;;;5023773;28;20045;-74
2022/04/26 10:52:15;;;;;;;4.65;1.80;;;19.90;99.90;;;;;;5025194;28;20030;-72
2022/04/26 10:57:13;;;;;;;3.15;1.75;;;19.30;99.90;;;;;;5037911;28;20041;-72
2022/04/26 11:00:09;;;;;;;3.53;1.58;;;19.00;99.90;;;;;;5051492;28;20057;-74
2022/04/26 11:02:40;;;;;;;3.85;1.48;;;18.90;99.90;;;;;;5040307;28;20037;-74
2022/04/26 11:05:13;;;;;;;2.80;1.75;;;18.70;99.90;;;;;;5040513;28;20034;-74
2022/04/26 11:07:45;;;;;;;2.95;1.70;;;18.60;99.90;;;;;;5065062;28;20088;-73
2022/04/26 11:10:11;;;;;;;2.78;1.60;;;18.50;99.90;;;;;;5048754;28;20124;-73
2022/04/26 11:12:39;;;;;;;5.18;2.47;;;18.20;99.90;;;;;;5042635;28;20025;-75
2022/04/26 11:15:10;;;;;;;5.18;2.25;;;18.20;99.90;;;;;;5058643;28;20024;-73
2022/04/26 11:17:37;;;;;;;10.98;2.20;;;18.00;99.90;;;;;;5064610;28;20086;-74
2022/04/26 11:20:16;;;;;;;5.88;2.20;;;17.90;99.90;;;;;;5051374;28;20084;-72
2022/04/26 11:22:50;;;;;;;7.80;1.85;;;18.10;99.90;;;;;;5039898;28;20026;-75
2022/04/26 11:28:11;;;;;;;4.03;1.95;;;18.50;99.90;;;;;;5025207;28;20065;-73
2022/04/26 11:30:47;;;;;;;3.17;1.98;;;18.70;99.20;;;;;;5033348;28;20033;-74
2022/04/26 11:33:24;;;;;;;4.95;2.35;;;19.00;99.90;;;;;;5038270;28;20025;-72
2022/04/26 11:35:58;;;;;;;3.85;1.80;;;19.40;98.40;;;;;;5050250;28;20017;-73
2022/04/26 11:38:25;;;;;;;5.13;2.40;;;19.60;99.90;;;;;;5043551;28;20037;-74
2022/04/26 11:41:02;;;;;;;4.13;2.28;;;20.00;97.40;;;;;;5044532;28;20044;-72
2022/04/26 11:43:31;;;;;;;4.30;2.08;;;20.20;99.40;;;;;;5029628;28;20045;-72
2022/04/26 11:45:58;;;;;;;5.32;2.65;;;20.50;99.90;;;;;;5062791;28;20028;-73
2022/04/26 11:48:33;;;;;;;4.78;1.92;;;20.50;98.00;;;;;;5047284;28;20559;-73
2022/04/26 11:51:01;;;;;;;6.20;2.45;;;20.10;98.30;;;;;;5042623;28;20038;-73
2022/04/26 11:53:37;;;;;;;5.50;2.28;;;19.60;96.50;;;;;;5044226;28;20026;-71
2022/04/26 11:56:05;;;;;;;4.55;2.35;;;19.40;97.70;;;;;;5055153;28;20059;-73
2022/04/26 11:58:36;;;;;;;5.82;2.08;;;19.50;96.20;;;;;;5057072;28;20072;-73
2022/04/26 12:01:15;;;;;;;5.97;2.72;;;19.30;97.70;;;;;;5043930;28;20492;-73
2022/04/26 12:03:52;;;;;;;5.32;2.13;;;19.20;98.00;;;;;;5054783;28;20112;-72
2022/04/26 12:06:29;;;;;;;6.28;3.08;;;19.10;98.00;;;;;;5047573;28;20025;-72
2022/04/26 12:09:05;;;;;;;4.53;1.98;;;18.90;97.20;;;;;;5038592;28;20022;-71
2022/04/26 12:11:37;;;;;;;4.20;2.63;;;19.10;97.70;;;;;;5028862;28;20032;-72
2022/04/26 12:14:13;;;;;;;4.95;2.53;;;19.00;97.40;;;;;;5042141;28;20445;-73
2022/04/26 12:16:48;;;;;;;9.02;3.17;;;18.90;98.20;;;;;;5038365;28;20065;-72
2022/04/26 12:19:15;;;;;;;4.53;2.92;;;18.80;99.90;;;;;;5040544;28;20040;-72
2022/04/26 12:21:46;;;;;;;6.55;3.50;;;18.70;99.90;;;;;;5039849;28;20550;-72
2022/04/26 12:24:21;;;;;;;11.52;2.97;;;18.60;99.90;;;;;;5049338;28;20032;-72
2022/04/26 12:27:00;;;;;;;9.20;3.53;;;18.40;99.90;;;;;;5041267;28;20087;-72
2022/04/26 12:29:53;;;;;;;7.72;3.88;;;18.20;99.90;;;;;;5042862;28;20021;-75
2022/04/26 12:32:21;;;;;;;9.48;3.10;;;18.00;99.90;;;;;;5066927;28;20036;-72
2022/04/26 12:34:48;;;;;;;6.55;3.63;;;17.60;99.90;;;;;;5058261;28;20026;-72
2022/04/26 12:37:21;;;;;;;5.85;3.03;;;17.60;99.90;;;;;;5054766;28;20041;-72
2022/04/26 12:40:15;;;;;;;5.13;3.05;;;17.90;99.90;;;;;;5062539;28;21269;-71
2022/04/26 12:42:42;;;;;;;4.45;3.08;;;18.50;99.90;;;;;;5049372;28;20041;-72
2022/04/26 12:45:13;;;;;;;8.80;3.72;;;19.00;99.90;;;;;;5047662;28;20035;-72
2022/04/26 12:50:28;;;;;;;5.60;3.17;;;19.40;99.90;;;;;;5040234;28;20041;-72
2022/04/26 12:53:00;;;;;;;7.43;2.85;;;19.80;99.90;;;;;;5051315;28;20081;-74
2022/04/26 12:55:31;;;;;;;12.63;3.80;;;20.00;99.90;;;;;;5066584;28;20441;-73
2022/04/26 12:58:00;;;;;;;9.10;2.88;;;20.20;99.90;;;;;;5049747;28;20038;-73
2022/04/26 13:00:27;;;;;;;10.20;3.15;;;20.20;99.90;;;;;;5047533;28;20129;-73
2022/04/26 13:02:55;;;;;;;8.88;3.40;;;20.60;99.90;;;;;;5043525;28;20085;-74
2022/04/26 13:05:21;;;;;;;5.57;3.15;;;20.60;99.90;;;;;;5027267;28;20037;-74
2022/04/26 13:07:47;;;;;;;4.75;2.88;;;20.60;99.90;;;;;;5038062;28;20408;-74
2022/04/26 13:10:17;;;;;;;7.50;3.20;;;20.60;99.90;;;;;;5027020;28;20108;-76
2022/04/26 13:12:43;;;;;;;9.77;3.17;;;20.40;99.90;;;;;;5026983;28;20030;-75
2022/04/26 13:15:10;;;;;;;6.93;3.08;;;20.20;99.90;;;;;;5027083;28;20046;-73
2022/04/26 13:17:39;;;;;;;8.25;2.88;;;19.90;99.90;;;;;;5026837;28;20037;-74
2022/04/26 13:20:06;;;;;;;6.25;3.38;;;19.70;99.90;;;;;;5027019;28;20030;-73
2022/04/26 13:22:36;;;;;;;8.10;3.08;;;19.50;99.90;;;;;;5040910;28;20433;-73
2022/04/26 13:25:03;;;;;;;5.65;2.60;;;19.50;99.90;;;;;;5037724;28;20033;-72
2022/04/26 13:27:30;;;;;;;9.07;2.75;;;19.50;99.90;;;;;;5046889;28;20114;-74
2022/04/26 13:29:56;;;;;;;7.07;3.10;;;19.40;99.90;;;;;;5047279;28;20794;-71
2022/04/26 13:32:21;;;;;;;4.88;3.00;;;19.30;99.90;;;;;;5040628;28;20034;-71
2022/04/26 13:34:48;;;;;;;15.43;2.92;;;19.60;99.90;;;;;;5044636;28;20029;-72
2022/04/26 13:37:15;;;;;;;6.60;3.50;;;19.50;99.90;;;;;;5046450;28;20033;-73
2022/04/26 13:39:43;;;;;;;7.30;2.55;;;19.50;99.90;;;;;;5058940;28;20040;-76
2022/04/26 13:42:10;;;;;;;9.35;3.55;;;19.40;99.90;;;;;;5058277;28;20051;-76
2022/04/26 13:44:36;;;;;;;6.20;2.47;;;19.50;99.90;;;;;;5046722;28;20029;-74
2022/04/26 13:47:04;;;;;;;5.85;2.85;;;19.60;99.90;;;;;;5045094;28;20028;-76
2022/04/26 13:49:31;;;;;;;4.30;2.58;;;19.70;99.90;;;;;;5046391;28;20049;-76
2022/04/26 13:51:57;;;;;;;6.63;2.80;;;19.70;99.90;;;;;;5048478;28;20029;-73
2022/04/26 13:54:27;;;;;;;6.32;2.47;;;20.00;99.90;;;;;;5026301;28;20038;-74
2022/04/26 13:56:54;;;;;;;8.82;2.88;;;20.00;99.90;;;;;;5026637;28;20069;-73
2022/04/26 13:59:20;;;;;;;8.07;2.35;;;20.00;99.90;;;;;;5026355;28;20480;-75
2022/04/26 14:01:45;;;;;;;6.80;3.00;;;20.20;99.90;;;;;;5039930;28;20026;-74
2022/04/26 14:04:11;;;;;;;9.55;3.03;;;20.10;99.90;;;;;;5045897;28;20060;-72
2022/04/26 14:06:37;;;;;;;8.23;3.03;;;20.10;99.90;;;;;;5045740;28;20052;-74
2022/04/26 14:09:03;;;;;;;3.90;2.55;;;19.80;99.90;;;;;;5044184;28;20034;-77
2022/04/26 14:11:28;;;;;;;9.05;2.58;;;19.90;99.90;;;;;;5039740;28;20055;-74
2022/04/26 14:22:19;;;;;;;4.22;2.58;;;19.60;99.90;;;;;;5034055;28;20036;-76
2022/04/26 14:24:45;;;;;;;6.32;2.90;;;19.70;99.90;;;;;;5037429;28;20085;-72
2022/04/26 14:27:11;;;;;;;4.65;2.90;;;19.80;99.90;;;;;;5034574;28;20478;-72
2022/04/26 14:29:37;;;;;;;6.10;3.20;;;20.10;99.90;;;;;;5060594;28;20031;-72
2022/04/26 14:32:03;;;;;;;6.93;2.63;;;20.10;99.90;;;;;;5052630;28;20038;-72
2022/04/26 14:34:29;;;;;;;8.55;2.83;;;20.10;99.90;;;;;;5039729;28;20029;-73
2022/04/26 14:36:55;;;;;;;4.43;2.47;;;20.10;99.90;;;;;;5036413;28;20102;-73
2022/04/26 14:39:22;;;;;;;4.82;2.95;;;20.00;99.90;;;;;;5045172;28;20037;-73
2022/04/26 14:41:48;;;;;;;12.32;3.10;;;20.00;99.90;;;;;;5059052;28;20033;-75
2022/04/26 14:44:13;;;;;;;8.10;2.90;;;20.10;99.90;;;;;;5060550;28;20538;-73
2022/04/26 14:46:39;;;;;;;6.53;2.58;;;20.20;99.90;;;;;;5059589;28;20017;-73
2022/04/26 14:49:06;;;;;;;8.45;2.42;;;20.50;99.90;;;;;;5039089;28;20045;-74
2022/04/26 14:51:32;;;;;;;4.65;2.20;;;20.50;99.90;;;;;;5044133;28;20100;-74
2022/04/26 14:53:58;;;;;;;8.10;2.25;;;20.40;99.90;;;;;;5045312;28;20041;-77
2022/04/26 14:56:24;;;;;;;6.00;2.25;;;20.40;99.90;;;;;;5043978;28;20021;-75
2022/04/26 14:58:50;;;;;;;3.65;2.00;;;20.60;99.90;;;;;;5044439;28;20057;-73
2022/04/26 15:01:17;;;;;;;5.72;2.88;;;20.80;99.90;;;;;;5045274;28;20032;-73
2022/04/26 15:03:44;;;;;;;5.15;2.95;;;20.60;99.90;;;;;;5035239;28;20034;-71
2022/04/26 15:06:10;;;;;;;4.93;1.83;;;20.60;99.90;;;;;;5044831;28;20021;-72
2022/04/26 15:11:21;;;;;;;5.72;2.10;;;20.40;99.90;;;;;;5044902;28;20087;-72
2022/04/26 15:16:37;;;;;;;3.75;2.38;;;20.10;99.90;;;;;;5033811;28;20041;-73
2022/04/26 15:19:03;;;;;;;4.40;1.73;;;20.10;99.90;;;;;;5037958;28;20055;-73
2022/04/26 15:21:29;;;;;;;2.97;1.80;;;19.90;99.90;;;;;;5043114;28;20041;-72
2022/04/26 15:23:55;;;;;;;6.13;2.78;;;20.00;99.90;;;;;;5033500;28;20026;-74
2022/04/26 15:26:22;;;;;;;3.58;2.00;;;19.90;99.90;;;;;;5032728;28;20077;-74
2022/04/26 15:28:47;;;;;;;9.00;1.98;;;19.90;99.90;;;;;;5047056;28;20053;-73
2022/04/26 15:31:19;;;;;;;4.55;2.53;;;20.00;99.90;;;;;;5046185;28;20025;-72
2022/04/26 15:33:46;;;;;;;3.05;1.63;;;20.10;99.90;;;;;;5044785;28;20028;-73
2022/04/26 15:36:13;;;;;;;6.22;1.70;;;20.30;99.90;;;;;;5059955;28;20381;-73
2022/04/26 15:38:39;;;;;;;4.68;1.55;;;20.40;99.90;;;;;;5044168;28;20504;-74
2022/04/26 15:41:05;;;;;;;3.85;1.90;;;20.60;99.90;;;;;;5059295;28;20036;-76
2022/04/26 15:43:33;;;;;;;3.35;1.83;;;20.60;98.30;;;;;;5035924;28;20041;-74
2022/04/26 15:46:00;;;;;;;3.67;1.60;;;20.40;99.30;;;;;;5044209;28;20033;-77
2022/04/26 15:48:26;;;;;;;3.78;1.83;;;20.30;98.70;;;;;;5044280;28;20029;-74
2022/04/26 15:50:51;;;;;;;4.00;1.50;;;20.20;99.10;;;;;;5045956;28;20025;-73
2022/04/26 15:53:20;;;;;;;3.80;1.65;;;20.20;99.50;;;;;;5044186;28;20033;-76
2022/04/26 15:55:45;;;;;;;3.42;1.70;;;20.10;98.90;;;;;;5040160;28;20064;-75
2022/04/26 15:58:11;;;;;;;4.40;1.58;;;20.00;99.10;;;;;;5040523;28;20033;-75
2022/04/26 16:00:37;;;;;;;2.17;1.45;;;19.60;99.40;;;;;;5040701;28;20025;-74
2022/04/26 16:03:03;;;;;;;2.55;1.50;;;19.30;99.90;;;;;;5041580;28;20097;-75
2022/04/26 16:05:30;;;;;;;3.00;1.55;;;19.40;99.90;;;;;;5041985;28;20123;-76
2022/04/26 16:07:55;;;;;;;2.80;1.73;;;19.50;99.80;;;;;;5042869;28;20017;-71
2022/04/26 16:21:25;;;;;;;2.42;1.45;;;19.10;99.90;;;;;;5043618;28;20938;-73
2022/04/26 16:23:53;;;;;;;4.28;1.70;;;18.90;99.90;;;;;;5043936;28;20017;-77
2022/04/26 16:26:20;;;;;;;2.35;1.73;;;18.70;99.90;;;;;;5043451;28;20033;-76
2022/04/26 16:28:49;;;;;;;4.53;1.67;;;18.60;99.90;;;;;;5044005;28;20017;-75
2022/04/26 16:31:15;;;;;;;4.93;1.85;;;18.50;99.90;;;;;;5043731;28;20029;-75
2022/04/26 16:33:41;;;;;;;4.88;1.83;;;18.40;99.90;;;;;;5042803;28;20052;-75
2022/04/26 16:36:08;;;;;;;3.70;1.67;;;17.90;99.90;;;;;;5043802;28;20029;-73
2022/04/26 16:38:36;;;;;;;7.97;2.28;;;17.60;99.90;;;;;;5043898;28;20040;-74
2022/04/26 16:41:04;;;;;;;8.73;1.98;;;17.60;99.90;;;;;;5043515;28;20084;-75
2022/04/26 16:43:33;;;;;;;3.83;2.00;;;17.60;99.90;;;;;;5043522;28;20397;-75
2022/04/26 16:46:01;;;;;;;4.53;1.50;;;17.60;99.90;;;;;;5053179;28;20386;-74
2022/04/26 16:48:27;;;;;;;5.65;2.15;;;17.70;99.90;;;;;;5043158;28;20029;-72
2022/04/26 16:50:53;;;;;;;6.35;1.98;;;17.70;99.90;;;;;;5043405;28;20139;-76
2022/04/26 16:53:19;;;;;;;3.75;1.63;;;17.60;99.90;;;;;;5043492;28;20021;-75
2022/04/26 16:55:44;;;;;;;4.50;1.75;;;17.60;99.90;;;;;;5042703;28;20028;-72
2022/04/26 16:58:10;;;;;;;3.08;1.20;;;17.70;99.90;;;;;;5043305;28;20124;-73
2022/04/26 17:00:39;;;;;;;2.28;1.17;;;17.60;99.90;;;;;;5042970;28;20025;-73
2022/04/26 17:03:05;;;;;;;4.63;1.60;;;17.40;99.90;;;;;;5039903;28;20061;-75
2022/04/26 17:05:31;;;;;;;3.47;1.58;;;17.30;99.90;;;;;;5043333;28;20030;-74
2022/04/26 17:07:57;;;;;;;5.53;1.50;;;17.30;99.90;;;;;;5042573;28;20041;-73
2022/04/26 17:10:24;;;;;;;8.98;1.98;;;17.20;99.90;;;;;;5042760;28;20052;-74
2022/04/26 17:12:52;;;;;;;2.47;1.48;;;17.20;99.90;;;;;;5042956;28;20033;-74
2022/04/26 17:15:18;;;;;;;2.28;1.35;;;17.30;99.90;;;;;;5050577;28;20057;-74
2022/04/26 17:17:45;;;;;;;10.55;1.90;;;17.40;99.90;;;;;;5042329;28;20033;-75
2022/04/26 17:20:17;;;;;;;3.13;1.40;;;17.10;99.90;;;;;;5051431;28;20041;-73